Time;durP1;ratioP1;P1;durP2;ratioP2;P2;SDS_P1;SDS_P2;PMS_P1;PMS_P2;Temp;Humidity;BMP_temperature;BMP_pressure;BME280_temperature;BME280_humidity;BME280_pressure;Samples;Min_cycle;Max_cycle;Signal;HPM_P1;HPM_P2
2022/07/20 00:01:55;;;;;;;4.63;2.80;;;22.70;78.10;;;23.87;50.14;98014.00;5062242;28;20464;-79
2022/07/20 00:04:24;;;;;;;4.50;3.07;;;22.60;78.40;;;23.85;49.68;98010.78;5062855;28;20441;-79
2022/07/20 00:06:54;;;;;;;3.60;2.90;;;22.70;78.40;;;23.81;50.42;98010.53;5059656;28;20449;-80
2022/07/20 00:12:11;;;;;;;8.03;3.40;;;22.50;78.40;;;23.71;50.30;98012.44;5060338;28;20509;-79
2022/07/20 00:14:41;;;;;;;6.00;2.70;;;22.50;78.80;;;23.69;50.55;98011.91;5059033;28;20481;-79
2022/07/20 00:17:13;;;;;;;5.40;3.03;;;22.40;78.70;;;23.64;50.37;98010.06;5058014;28;20464;-79
2022/07/20 00:19:44;;;;;;;9.40;3.30;;;22.40;78.80;;;23.61;50.50;98012.47;5057858;28;20560;-79
2022/07/20 00:22:14;;;;;;;11.37;2.60;;;22.40;78.80;;;23.52;50.92;98022.91;5055734;28;20468;-80
2022/07/20 00:24:44;;;;;;;5.90;3.10;;;22.40;78.50;;;23.46;51.15;98019.44;5055247;28;20510;-79
2022/07/20 00:27:14;;;;;;;4.50;3.10;;;22.40;78.60;;;23.44;51.20;98012.78;5057490;28;20461;-79
2022/07/20 00:29:44;;;;;;;4.73;2.50;;;22.30;78.60;;;23.37;51.15;98013.03;5056936;28;20571;-80
2022/07/20 00:32:16;;;;;;;6.63;3.30;;;22.30;79.30;;;23.33;51.13;98009.31;5058994;28;21093;-79
2022/07/20 00:34:46;;;;;;;6.37;3.53;;;22.20;79.30;;;23.33;51.32;98005.81;5058061;28;20497;-79
2022/07/20 00:37:17;;;;;;;5.03;3.03;;;22.20;79.50;;;23.29;51.65;98007.47;5058267;28;20544;-79
2022/07/20 00:39:48;;;;;;;8.07;3.90;;;22.20;79.60;;;23.25;52.00;98001.06;5058835;28;20503;-79
2022/07/20 00:42:18;;;;;;;5.53;2.80;;;22.10;79.90;;;23.21;52.16;98008.00;5058317;28;20473;-79
2022/07/20 00:44:47;;;;;;;11.17;3.03;;;22.10;79.90;;;23.19;52.18;98008.25;5060870;28;20452;-79
2022/07/20 00:47:20;;;;;;;5.67;3.27;;;22.00;80.30;;;23.15;52.15;98007.19;5061225;28;20942;-79
2022/07/20 00:49:50;;;;;;;7.23;3.10;;;22.00;80.10;;;23.09;52.31;98005.59;5056803;28;20623;-79
2022/07/20 00:52:21;;;;;;;4.90;2.90;;;22.00;79.70;;;23.00;52.43;98004.56;5055785;28;20501;-80
2022/07/20 00:54:53;;;;;;;4.17;3.00;;;22.00;80.00;;;22.92;53.20;98005.88;5058108;28;20503;-79
2022/07/20 00:57:22;;;;;;;4.47;2.83;;;22.00;80.00;;;22.89;53.17;97998.41;5058375;28;20487;-80
2022/07/20 00:59:52;;;;;;;4.47;3.00;;;21.90;80.80;;;22.83;53.50;98004.81;5058655;28;20977;-79
2022/07/20 01:02:23;;;;;;;4.30;3.00;;;21.80;80.40;;;22.75;54.07;98001.88;5057712;28;20480;-79
2022/07/20 01:04:54;;;;;;;5.30;3.10;;;21.80;79.70;;;22.67;54.54;98010.38;5055736;28;20537;-79
2022/07/20 01:07:23;;;;;;;6.87;3.10;;;21.80;81.30;;;22.64;54.66;98005.56;5055815;28;20499;-79
2022/07/20 01:09:54;;;;;;;5.47;2.90;;;21.70;81.40;;;22.68;54.34;98009.34;5058228;28;21057;-79
2022/07/20 01:12:23;;;;;;;4.07;3.33;;;21.60;81.20;;;22.63;54.76;98011.97;5060724;28;20445;-80
2022/07/20 01:14:56;;;;;;;7.37;3.00;;;21.60;81.40;;;22.59;55.10;98014.38;5059221;28;20951;-79
2022/07/20 01:17:28;;;;;;;4.87;3.00;;;21.50;81.90;;;22.59;55.22;98015.16;5056100;28;20465;-81
2022/07/20 01:19:58;;;;;;;7.50;3.20;;;21.50;82.00;;;22.55;55.16;98016.78;5057903;28;20514;-79
2022/07/20 01:22:30;;;;;;;6.37;3.23;;;21.50;81.50;;;22.54;55.59;98012.50;5055919;28;21068;-79
2022/07/20 01:25:02;;;;;;;6.43;3.80;;;21.40;82.10;;;22.46;55.37;98006.88;5059249;28;20830;-79
2022/07/20 01:27:33;;;;;;;6.10;3.20;;;21.40;81.80;;;22.38;55.94;98010.06;5061808;28;20505;-79
2022/07/20 01:30:04;;;;;;;7.80;4.00;;;21.40;82.00;;;22.31;56.20;98007.66;5056648;28;20491;-80
2022/07/20 01:32:34;;;;;;;9.13;3.90;;;21.30;82.30;;;22.28;56.60;98005.53;5056362;28;20460;-79
2022/07/20 01:35:06;;;;;;;5.40;3.27;;;21.20;82.30;;;22.28;57.01;98008.19;5056430;28;20459;-79
2022/07/20 01:37:38;;;;;;;8.17;3.37;;;21.20;82.70;;;22.22;57.08;98005.75;5058024;28;20464;-79
2022/07/20 01:40:14;;;;;;;5.57;2.80;;;21.20;82.60;;;22.16;57.52;98004.13;5056598;28;20459;-79
2022/07/20 01:42:45;;;;;;;7.40;2.70;;;21.10;83.00;;;22.15;57.99;98008.66;5057175;28;20875;-79
2022/07/20 01:45:15;;;;;;;6.17;3.30;;;21.10;83.40;;;22.14;57.78;98011.59;5055896;28;20881;-79
2022/07/20 01:47:46;;;;;;;4.73;3.60;;;21.10;82.80;;;22.13;58.17;97999.34;5056795;28;20471;-79
2022/07/20 01:50:15;;;;;;;4.47;3.60;;;21.20;82.70;;;22.10;57.81;98005.19;5057453;28;20542;-79
2022/07/20 01:52:46;;;;;;;11.33;3.37;;;21.10;83.30;;;22.10;58.38;98007.84;5054520;28;20478;-79
2022/07/20 01:55:16;;;;;;;3.90;3.23;;;21.00;83.70;;;22.13;58.41;97997.47;5059928;28;20543;-79
2022/07/20 01:57:46;;;;;;;4.23;2.90;;;21.00;84.40;;;22.05;58.33;98003.31;5054733;28;20461;-79
2022/07/20 02:00:18;;;;;;;5.60;3.03;;;20.90;83.50;;;21.94;58.82;98002.47;5063196;28;21440;-79
2022/07/20 02:02:49;;;;;;;3.80;3.10;;;20.90;83.90;;;21.92;59.18;97998.47;5058889;28;20567;-79
2022/07/20 02:05:20;;;;;;;5.63;2.93;;;20.90;83.60;;;21.87;59.39;98001.88;5055099;28;20559;-79
2022/07/20 02:07:50;;;;;;;5.00;2.93;;;20.90;83.70;;;21.80;60.09;98003.97;5054307;28;20460;-79
2022/07/20 02:10:19;;;;;;;3.50;2.70;;;20.80;84.20;;;21.74;60.49;98006.88;5057191;28;20564;-80
2022/07/20 02:12:50;;;;;;;6.20;3.03;;;20.70;84.60;;;21.75;59.80;98005.81;5054309;28;20502;-79
2022/07/20 02:18:07;;;;;;;6.57;3.27;;;20.70;84.20;;;21.64;60.74;98006.84;5058128;28;20486;-79
2022/07/20 02:20:36;;;;;;;7.67;3.67;;;20.60;84.70;;;21.61;61.32;98002.84;5057988;28;20437;-79
2022/07/20 02:23:10;;;;;;;6.53;3.23;;;20.50;85.30;;;21.61;61.44;98012.69;5058516;28;21448;-79
2022/07/20 02:25:39;;;;;;;4.53;3.23;;;20.60;85.10;;;21.51;62.33;98008.91;5060575;28;20451;-79
2022/07/20 02:28:10;;;;;;;5.40;3.10;;;20.50;85.30;;;21.51;62.03;98008.09;5057639;28;20460;-79
2022/07/20 02:30:40;;;;;;;4.80;3.10;;;20.50;85.20;;;21.51;62.12;98008.91;5055324;28;20484;-79
2022/07/20 02:33:12;;;;;;;6.23;3.50;;;20.50;85.40;;;21.47;62.28;98002.50;5059119;28;20513;-79
2022/07/20 02:35:42;;;;;;;4.67;3.00;;;20.40;85.90;;;21.50;62.35;97993.19;5059436;28;20460;-79
2022/07/20 02:38:13;;;;;;;7.87;3.20;;;20.40;85.40;;;21.47;63.04;97999.84;5059915;28;20464;-79
2022/07/20 02:40:43;;;;;;;6.90;3.37;;;20.30;85.90;;;21.46;62.44;98006.22;5057395;28;20457;-79
2022/07/20 02:43:11;;;;;;;8.70;3.10;;;20.40;86.00;;;21.39;63.23;98004.81;5056954;28;20464;-79
2022/07/20 02:45:41;;;;;;;9.37;3.50;;;20.30;86.00;;;21.32;63.53;98002.41;5059175;28;20457;-79
2022/07/20 02:48:10;;;;;;;3.90;3.30;;;20.30;86.10;;;21.30;63.92;98004.53;5056804;28;20452;-79
2022/07/20 02:50:43;;;;;;;7.83;3.00;;;20.30;86.20;;;21.33;64.08;98005.88;5056461;28;20570;-79
2022/07/20 02:53:15;;;;;;;3.43;3.10;;;20.20;86.50;;;21.31;64.01;98008.00;5058433;28;20441;-79
2022/07/20 02:55:46;;;;;;;8.47;4.23;;;20.30;86.30;;;21.29;64.00;98000.25;5057975;28;20461;-79
2022/07/20 02:58:16;;;;;;;5.60;3.30;;;20.20;86.50;;;21.28;64.16;98003.97;5055356;28;20537;-79
2022/07/20 03:00:45;;;;;;;4.07;3.10;;;20.20;86.60;;;21.25;64.63;98004.47;5058694;28;20456;-79
2022/07/20 03:03:14;;;;;;;8.97;3.27;;;20.20;87.20;;;21.30;64.88;98009.84;5058559;28;20499;-79
2022/07/20 03:05:44;;;;;;;7.53;3.43;;;20.10;86.90;;;21.20;64.73;98007.13;5054046;28;21423;-79
2022/07/20 03:08:14;;;;;;;7.53;4.10;;;20.10;87.10;;;21.16;64.91;98011.34;5059987;28;20967;-85
2022/07/20 03:10:46;;;;;;;4.73;3.20;;;20.10;86.40;;;21.15;65.24;98004.41;5056500;28;20488;-80
2022/07/20 03:13:15;;;;;;;9.37;3.50;;;20.10;86.80;;;21.13;65.28;98003.06;5055806;28;20866;-80
2022/07/20 03:15:44;;;;;;;7.43;3.37;;;20.10;86.40;;;21.08;65.60;98006.47;5054166;28;20468;-79
2022/07/20 03:18:14;;;;;;;7.07;3.17;;;20.10;87.30;;;21.09;65.73;98008.06;5060922;28;20469;-84
2022/07/20 03:20:44;;;;;;;3.90;2.80;;;20.00;87.40;;;21.05;66.10;98009.63;5055974;28;20950;-80
2022/07/20 03:23:16;;;;;;;5.20;3.27;;;19.90;88.00;;;20.98;66.35;98006.38;5054288;28;20537;-80
2022/07/20 03:25:45;;;;;;;4.50;2.93;;;19.90;87.20;;;20.94;66.85;98007.94;5057135;28;20933;-80
2022/07/20 03:28:17;;;;;;;6.80;3.40;;;20.00;87.40;;;20.88;67.62;98003.66;5057063;28;20468;-80
2022/07/20 03:30:48;;;;;;;8.00;3.37;;;20.00;87.70;;;20.86;67.66;98005.78;5058011;28;20483;-80
2022/07/20 03:33:18;;;;;;;5.83;3.73;;;19.80;88.10;;;20.90;67.86;98002.34;5057399;28;20457;-80
2022/07/20 03:35:48;;;;;;;6.73;3.33;;;19.80;88.40;;;20.88;67.77;98008.97;5057018;28;20513;-82
2022/07/20 03:38:19;;;;;;;7.83;4.83;;;19.80;88.50;;;20.82;67.96;98005.47;5056272;28;20460;-80
2022/07/20 03:40:49;;;;;;;9.30;3.60;;;19.80;88.50;;;20.81;68.11;98009.19;5057585;28;20464;-80
2022/07/20 03:43:18;;;;;;;5.13;3.27;;;19.80;87.80;;;20.81;68.57;98013.69;5059244;28;20471;-80
2022/07/20 03:45:47;;;;;;;4.57;3.77;;;19.80;88.40;;;20.78;68.39;98014.19;5057860;28;20518;-79
2022/07/20 03:48:17;;;;;;;6.20;3.27;;;19.70;88.30;;;20.79;68.60;98015.81;5058009;28;20971;-82
2022/07/20 03:50:48;;;;;;;6.93;3.50;;;19.70;88.50;;;20.72;69.05;98017.88;5058265;28;20485;-80
2022/07/20 03:53:18;;;;;;;5.60;2.90;;;19.60;88.70;;;20.77;69.29;98017.91;5059197;28;20462;-80
2022/07/20 03:55:48;;;;;;;5.00;3.23;;;19.60;88.80;;;20.68;69.59;98020.25;5057224;28;20457;-79
2022/07/20 03:58:17;;;;;;;5.67;3.13;;;19.60;89.00;;;20.63;70.12;98017.53;5062822;28;20468;-80
2022/07/20 04:00:47;;;;;;;7.07;3.67;;;19.50;89.20;;;20.61;70.55;98026.81;5060126;28;20473;-79
2022/07/20 04:03:17;;;;;;;6.10;3.47;;;19.50;89.30;;;20.58;70.80;98023.56;5060213;28;20488;-84
2022/07/20 04:05:47;;;;;;;14.57;5.70;;;19.50;89.60;;;20.60;70.82;98026.00;5062341;28;20540;-80
2022/07/20 04:08:18;;;;;;;5.03;3.37;;;19.50;89.40;;;20.59;71.10;98032.34;5062087;28;21072;-80
2022/07/20 04:10:47;;;;;;;10.90;3.30;;;19.50;89.60;;;20.64;71.25;98026.31;5061174;28;20518;-80
2022/07/20 04:13:18;;;;;;;6.90;3.50;;;19.50;90.00;;;20.65;71.11;98026.06;5060224;28;20452;-80
2022/07/20 04:15:48;;;;;;;5.90;3.70;;;19.50;89.90;;;20.62;71.46;98023.88;5062101;28;20464;-79
2022/07/20 04:18:19;;;;;;;10.10;3.80;;;19.50;90.00;;;20.59;71.41;98033.16;5060823;28;20506;-79
2022/07/20 04:20:49;;;;;;;9.60;3.50;;;19.50;89.90;;;20.57;72.19;98029.97;5061056;28;20520;-80
2022/07/20 04:23:19;;;;;;;8.40;3.80;;;19.50;90.20;;;20.56;72.10;98033.66;5061943;28;20456;-79
2022/07/20 04:25:49;;;;;;;7.70;3.57;;;19.50;89.60;;;20.54;72.31;98035.78;5062022;28;20440;-79
2022/07/20 04:28:19;;;;;;;4.73;3.43;;;19.50;90.00;;;20.55;72.41;98041.88;5060904;28;20530;-79
2022/07/20 04:30:49;;;;;;;4.33;3.37;;;19.50;90.30;;;20.54;72.52;98041.09;5062659;28;20563;-80
2022/07/20 04:33:19;;;;;;;5.23;3.50;;;19.40;90.30;;;20.52;72.62;98035.22;5062261;28;21008;-80
2022/07/20 04:35:49;;;;;;;9.23;4.03;;;19.40;90.30;;;20.53;72.84;98041.34;5061021;28;20549;-79
2022/07/20 04:38:20;;;;;;;14.63;3.40;;;19.50;90.20;;;20.48;73.20;98044.75;5062851;28;20482;-79
2022/07/20 04:40:49;;;;;;;6.10;4.03;;;19.40;90.40;;;20.48;73.33;98042.09;5061963;28;21098;-80
2022/07/20 04:43:19;;;;;;;6.33;4.00;;;19.40;90.50;;;20.46;73.77;98044.19;5062529;28;20472;-79
2022/07/20 04:45:50;;;;;;;7.13;4.03;;;19.40;90.50;;;20.46;74.39;98038.88;5063723;28;20460;-79
2022/07/20 04:48:26;;;;;;;4.90;3.73;;;19.40;90.50;;;20.46;74.61;98043.41;5062619;28;20449;-79
2022/07/20 04:50:56;;;;;;;7.77;3.90;;;19.40;90.60;;;20.47;75.01;98045.00;5061435;28;20785;-79
2022/07/20 04:53:29;;;;;;;5.50;3.70;;;19.40;90.60;;;20.47;75.05;98037.84;5061682;28;20460;-79
2022/07/20 04:55:59;;;;;;;6.83;4.00;;;19.40;90.60;;;20.48;75.08;98050.06;5060992;28;20463;-79
2022/07/20 04:58:31;;;;;;;6.33;3.90;;;19.50;90.70;;;20.50;74.97;98047.16;5061593;28;20476;-79
2022/07/20 05:01:01;;;;;;;5.90;3.80;;;19.50;90.80;;;20.53;75.10;98044.81;5060841;28;20437;-79
2022/07/20 05:03:32;;;;;;;5.93;3.80;;;19.50;90.70;;;20.57;75.59;98051.22;5061891;28;20511;-79
2022/07/20 05:06:02;;;;;;;8.80;3.73;;;19.50;90.90;;;20.58;75.57;98046.72;5062561;28;20438;-79
2022/07/20 05:08:33;;;;;;;4.53;3.33;;;19.50;90.80;;;20.59;76.11;98049.13;5063858;28;20549;-79
2022/07/20 05:11:03;;;;;;;7.80;3.70;;;19.50;91.10;;;20.64;76.11;98050.22;5062195;28;21423;-79
2022/07/20 05:13:39;;;;;;;6.93;3.47;;;19.50;91.10;;;20.68;76.12;98046.00;5061071;28;20491;-79
2022/07/20 05:16:11;;;;;;;7.10;4.00;;;19.60;91.00;;;20.70;76.47;98049.22;5062769;28;20453;-80
2022/07/20 05:18:41;;;;;;;6.30;4.10;;;19.70;91.00;;;20.71;76.44;98040.19;5061694;28;20478;-79
2022/07/20 05:21:10;;;;;;;6.43;3.47;;;19.70;91.10;;;20.73;76.86;98048.69;5059855;28;20476;-79
2022/07/20 05:23:42;;;;;;;4.97;3.73;;;19.70;91.00;;;20.77;77.12;98044.50;5060761;28;20449;-80
2022/07/20 05:26:12;;;;;;;5.70;3.40;;;19.80;91.20;;;20.82;77.01;98047.22;5062434;28;20904;-79
2022/07/20 05:28:42;;;;;;;6.10;4.00;;;19.80;91.20;;;20.89;76.99;98053.94;5062242;28;20495;-79
2022/07/20 05:31:13;;;;;;;3.97;3.50;;;19.80;91.20;;;20.94;76.49;98050.50;5062108;28;20797;-79
2022/07/20 05:33:42;;;;;;;7.83;3.97;;;19.80;90.70;;;21.00;75.65;98046.81;5062550;28;20557;-79
2022/07/20 05:36:13;;;;;;;5.63;3.77;;;19.90;90.90;;;21.06;75.63;98048.47;5061411;28;20919;-79
2022/07/20 05:38:44;;;;;;;7.67;3.97;;;20.00;91.10;;;21.11;76.12;98051.19;5062682;28;20973;-79
2022/07/20 05:41:17;;;;;;;5.90;4.00;;;20.00;91.20;;;21.15;76.03;98049.63;5062157;28;20437;-79
2022/07/20 05:43:46;;;;;;;7.07;4.10;;;20.10;91.10;;;21.19;75.97;98050.72;5060755;28;20449;-79
2022/07/20 05:46:17;;;;;;;5.10;3.33;;;20.10;91.10;;;21.22;76.30;98044.91;5061223;28;20465;-80
2022/07/20 05:48:47;;;;;;;6.80;4.10;;;20.10;91.20;;;21.28;75.67;98051.84;5061027;28;20922;-79
2022/07/20 05:51:16;;;;;;;12.07;4.17;;;20.20;91.00;;;21.34;75.71;98055.38;5062022;28;20955;-79
2022/07/20 05:54:00;;;;;;;6.80;4.10;;;20.30;90.90;;;21.40;75.32;98055.16;5060929;28;20483;-80
2022/07/20 05:56:31;;;;;;;9.97;4.37;;;20.30;90.90;;;21.45;74.57;98057.81;5061996;28;20449;-80
2022/07/20 05:59:01;;;;;;;6.80;4.23;;;20.30;90.80;;;21.50;74.97;98059.72;5062090;28;20510;-79
2022/07/20 06:01:31;;;;;;;7.60;3.90;;;20.40;91.00;;;21.58;75.01;98060.06;5060404;28;20465;-79
2022/07/20 06:04:01;;;;;;;17.33;4.33;;;20.50;91.10;;;21.63;74.74;98063.78;5060411;28;20449;-79
2022/07/20 06:06:31;;;;;;;7.43;4.57;;;20.50;90.90;;;21.67;74.75;98056.88;5060251;28;20948;-80
2022/07/20 06:09:02;;;;;;;12.30;4.63;;;20.60;90.70;;;21.72;74.81;98067.59;5060537;28;20556;-80
2022/07/20 06:11:52;;;;;;;11.70;3.93;;;20.60;90.70;;;21.78;74.03;98055.91;5059624;28;20461;-80
2022/07/20 06:14:21;;;;;;;16.07;4.53;;;20.70;90.60;;;21.84;73.34;98054.84;5059423;28;20464;-80
2022/07/20 06:16:51;;;;;;;10.30;4.57;;;20.80;90.40;;;21.89;73.08;98065.53;5059706;28;20888;-80
2022/07/20 06:19:21;;;;;;;7.10;4.60;;;20.80;90.50;;;21.94;73.29;98073.56;5060241;28;20551;-80
2022/07/20 06:21:51;;;;;;;9.87;4.37;;;20.90;90.50;;;21.98;73.48;98079.97;5060306;28;20449;-80
2022/07/20 06:24:23;;;;;;;7.70;4.33;;;21.00;90.40;;;22.04;73.12;98098.41;5061355;28;20975;-80
2022/07/20 06:26:56;;;;;;;10.97;4.10;;;21.00;90.30;;;22.11;72.70;98102.72;5061443;28;20506;-80
2022/07/20 06:29:26;;;;;;;9.10;4.17;;;21.10;90.40;;;22.16;72.72;98086.72;5062597;28;20444;-80
2022/07/20 06:31:58;;;;;;;5.30;3.87;;;21.10;90.70;;;22.24;72.57;98083.56;5061436;28;20946;-80
2022/07/20 06:34:45;;;;;;;12.27;4.80;;;21.30;90.30;;;22.31;71.66;98095.59;5060054;28;20539;-79
2022/07/20 06:37:15;;;;;;;7.70;4.37;;;21.50;90.10;;;22.37;71.30;98088.41;5059417;28;20471;-80
2022/07/20 06:39:46;;;;;;;11.77;4.50;;;21.50;89.70;;;22.43;70.93;98090.81;5059931;28;20484;-79
2022/07/20 06:42:16;;;;;;;9.53;4.73;;;21.50;90.00;;;22.52;70.89;98080.47;5059553;28;20463;-79
2022/07/20 06:44:46;;;;;;;12.33;4.47;;;21.60;90.00;;;22.59;71.04;98076.47;5062696;28;20473;-80
2022/07/20 06:47:17;;;;;;;7.70;4.20;;;21.70;89.80;;;22.68;70.36;98081.31;5058577;28;20440;-80
2022/07/20 06:49:47;;;;;;;8.03;3.60;;;21.80;89.50;;;22.75;70.12;98077.34;5059757;28;20460;-79
2022/07/20 06:52:17;;;;;;;8.93;4.63;;;21.90;89.50;;;22.83;70.10;98068.84;5058198;28;20532;-80
2022/07/20 06:54:49;;;;;;;7.30;5.10;;;22.00;89.60;;;22.91;69.61;98075.47;5055926;28;20437;-80
2022/07/20 06:57:19;;;;;;;10.00;4.80;;;22.10;89.70;;;22.99;69.39;98070.44;5057460;28;20453;-79
2022/07/20 06:59:49;;;;;;;9.13;4.07;;;22.10;89.70;;;23.08;69.37;98069.91;5060545;28;20482;-80
2022/07/20 07:02:19;;;;;;;17.30;4.70;;;22.20;89.50;;;23.15;69.44;98065.88;5061009;28;20503;-80
2022/07/20 07:04:50;;;;;;;6.80;4.07;;;22.20;89.70;;;23.24;69.35;98071.50;5060492;28;20445;-80
2022/07/20 07:07:19;;;;;;;7.73;3.93;;;22.30;89.90;;;23.31;69.19;98067.50;5061467;28;20536;-80
2022/07/20 07:09:51;;;;;;;9.67;5.40;;;22.40;89.50;;;23.38;69.31;98070.69;5060063;28;20986;-80
2022/07/20 07:12:20;;;;;;;10.33;4.27;;;22.50;89.50;;;23.44;68.55;98072.31;5059143;28;20459;-79
2022/07/20 07:14:49;;;;;;;5.27;3.57;;;22.50;89.20;;;23.52;68.43;98087.81;5059620;28;20976;-80
2022/07/20 07:17:24;;;;;;;9.10;4.70;;;22.70;89.30;;;23.59;68.03;98086.72;5062560;28;20502;-80
2022/07/20 07:19:55;;;;;;;7.73;4.60;;;22.80;89.00;;;23.67;67.78;98094.19;5064837;28;20452;-80
2022/07/20 07:22:24;;;;;;;9.90;4.03;;;22.80;88.70;;;23.74;66.43;98097.38;5065144;28;20536;-79
2022/07/20 07:24:56;;;;;;;8.60;3.70;;;22.90;88.00;;;23.82;64.94;98108.31;5065820;28;20452;-80
2022/07/20 07:27:25;;;;;;;6.53;3.77;;;23.00;86.60;;;23.90;63.67;98121.13;5065323;28;20457;-80
2022/07/20 07:29:55;;;;;;;12.50;3.80;;;23.10;86.00;;;23.99;62.66;98140.88;5064849;28;20844;-80
2022/07/20 07:32:25;;;;;;;7.50;4.53;;;23.20;85.80;;;24.09;61.88;98144.59;5063476;28;20444;-80
2022/07/20 07:34:55;;;;;;;10.37;3.90;;;23.30;85.60;;;24.19;61.43;98141.94;5063851;28;20451;-80
2022/07/20 07:37:25;;;;;;;6.43;3.90;;;23.40;85.30;;;24.32;61.03;98127.97;5062127;28;20790;-80
2022/07/20 07:39:58;;;;;;;6.77;4.60;;;23.50;84.60;;;24.44;58.62;98134.59;5063557;28;20528;-80
2022/07/20 07:42:29;;;;;;;7.77;4.40;;;23.70;83.40;;;24.56;58.20;98142.31;5064819;28;20464;-80
2022/07/20 07:45:04;;;;;;;10.87;5.97;;;23.90;83.30;;;24.68;57.81;98137.41;5064581;28;20444;-80
2022/07/20 07:47:36;;;;;;;6.83;4.23;;;24.00;83.00;;;24.80;57.24;98139.78;5063576;28;20432;-80
2022/07/20 07:50:08;;;;;;;6.47;4.23;;;24.10;83.10;;;24.90;56.88;98139.75;5061342;28;20556;-80
2022/07/20 07:52:38;;;;;;;12.27;3.50;;;24.20;82.60;;;25.03;57.16;98141.78;5061678;28;20444;-80
2022/07/20 07:55:26;;;;;;;5.23;3.43;;;24.40;82.60;;;25.30;53.57;98134.13;5063999;28;20543;-80
2022/07/20 07:57:57;;;;;;;5.33;3.57;;;24.70;79.60;;;25.54;51.44;98142.25;5063949;28;20510;-80
2022/07/20 08:00:35;;;;;;;9.13;3.83;;;24.90;78.10;;;25.66;51.49;98142.69;5062749;28;20460;-80
2022/07/20 08:03:06;;;;;;;7.53;4.03;;;25.00;77.90;;;25.86;49.98;98126.41;5061925;28;20527;-80
2022/07/20 08:05:38;;;;;;;20.03;3.93;;;25.20;76.90;;;26.08;49.02;98142.00;5062392;28;20473;-81
2022/07/20 08:08:09;;;;;;;8.33;4.43;;;25.40;76.40;;;26.16;48.53;98136.03;5062731;28;20472;-80
2022/07/20 08:10:41;;;;;;;10.27;4.70;;;25.60;76.00;;;26.22;48.83;98129.53;5063399;28;20464;-80
2022/07/20 08:13:12;;;;;;;13.20;4.87;;;25.60;75.90;;;26.27;47.98;98132.19;5063297;28;20473;-80
2022/07/20 08:15:42;;;;;;;8.93;4.57;;;25.70;75.70;;;26.34;48.70;98131.81;5064125;28;20463;-80
2022/07/20 08:18:20;;;;;;;7.87;5.27;;;25.70;75.90;;;26.38;48.81;98132.84;5062196;28;20448;-80
2022/07/20 08:20:51;;;;;;;12.03;5.20;;;25.70;76.10;;;26.42;49.40;98145.38;5063067;28;20459;-80
2022/07/20 08:23:20;;;;;;;11.03;5.23;;;25.70;76.60;;;26.44;48.91;98127.13;5063529;28;20453;-80
2022/07/20 08:25:51;;;;;;;10.60;5.07;;;25.80;76.90;;;26.50;49.50;98138.59;5062681;28;20444;-80
2022/07/20 08:28:23;;;;;;;12.73;5.30;;;25.80;77.40;;;26.53;49.87;98146.88;5062531;28;20451;-80
2022/07/20 08:30:54;;;;;;;11.80;4.70;;;25.80;77.70;;;26.59;49.60;98138.75;5062911;28;20826;-80
2022/07/20 08:33:24;;;;;;;9.33;5.20;;;25.80;77.80;;;26.64;50.41;98136.00;5060986;28;20469;-80
2022/07/20 08:35:54;;;;;;;20.83;6.13;;;25.80;78.30;;;26.66;50.39;98133.84;5063496;28;20807;-80
2022/07/20 08:38:25;;;;;;;9.50;5.60;;;25.90;78.60;;;26.70;51.00;98140.19;5063940;28;20460;-80
2022/07/20 08:40:57;;;;;;;14.10;6.80;;;25.90;78.80;;;26.75;50.69;98135.59;5063008;28;20789;-80
2022/07/20 08:43:29;;;;;;;6.87;5.33;;;26.00;78.50;;;26.82;50.58;98143.31;5063324;28;20463;-80
2022/07/20 08:46:02;;;;;;;10.33;5.53;;;26.10;78.60;;;26.86;50.54;98136.28;5063919;28;20453;-80
2022/07/20 08:48:32;;;;;;;10.37;5.17;;;26.10;78.10;;;26.89;50.35;98147.22;5061949;28;20440;-80
2022/07/20 08:51:02;;;;;;;12.33;6.33;;;26.20;78.40;;;26.94;49.80;98146.34;5063462;28;20463;-80
2022/07/20 08:53:32;;;;;;;13.87;5.70;;;26.20;77.90;;;26.98;50.09;98144.69;5060024;28;20494;-80
2022/07/20 08:56:11;;;;;;;10.87;6.03;;;26.20;78.40;;;27.01;50.74;98152.16;5061396;28;25030;-80
2022/07/20 08:58:43;;;;;;;15.03;6.37;;;26.20;78.70;;;27.09;50.18;98151.50;5060440;28;20557;-80
2022/07/20 09:01:15;;;;;;;14.27;6.73;;;26.50;78.00;;;27.19;49.63;98158.59;5062060;28;20468;-81
2022/07/20 09:03:46;;;;;;;10.10;5.40;;;26.50;77.90;;;27.22;50.13;98153.44;5062161;28;20892;-80
2022/07/20 09:06:16;;;;;;;13.80;6.47;;;26.50;78.10;;;27.26;50.03;98157.16;5062710;28;20932;-80
2022/07/20 09:09:01;;;;;;;11.40;6.60;;;26.50;77.90;;;27.30;50.44;98160.84;5062930;28;20525;-80
2022/07/20 09:11:33;;;;;;;13.07;6.43;;;26.60;78.50;;;27.35;49.44;98158.06;5061925;28;20547;-80
2022/07/20 09:14:03;;;;;;;12.93;6.93;;;26.70;77.60;;;27.40;49.32;98151.81;5059190;28;20503;-80
2022/07/20 09:16:40;;;;;;;21.60;6.33;;;26.70;77.50;;;27.45;49.62;98151.78;5062790;28;20951;-80
2022/07/20 09:19:10;;;;;;;7.60;5.47;;;26.80;78.20;;;27.52;49.49;98153.00;5061073;28;20451;-80
2022/07/20 09:21:45;;;;;;;10.50;5.90;;;26.80;78.20;;;27.64;49.20;98149.84;5061845;28;20444;-80
2022/07/20 09:24:19;;;;;;;9.10;6.93;;;26.90;77.70;;;27.81;49.16;98151.97;5061941;28;20449;-81
2022/07/20 09:27:05;;;;;;;17.73;6.50;;;27.00;77.50;;;27.88;48.41;98155.06;5061419;28;20469;-81
2022/07/20 09:29:36;;;;;;;13.30;6.10;;;27.10;76.60;;;27.90;47.30;98152.91;5061446;28;21012;-80
2022/07/20 09:32:08;;;;;;;11.37;6.63;;;27.20;75.70;;;27.92;47.98;98139.94;5060554;28;20460;-80
2022/07/20 09:34:37;;;;;;;11.77;5.63;;;27.20;76.30;;;27.96;48.29;98146.34;5061531;28;20548;-80
2022/07/20 09:37:18;;;;;;;9.10;5.23;;;27.20;76.70;;;28.04;46.49;98139.47;5062339;28;20947;-80
2022/07/20 09:40:01;;;;;;;17.83;6.30;;;27.30;74.90;;;28.07;46.46;98126.25;5062370;28;20436;-80
2022/07/20 09:42:43;;;;;;;8.67;5.27;;;27.40;75.00;;;28.11;47.16;98142.59;5061595;28;20460;-80
2022/07/20 09:45:36;;;;;;;11.83;6.17;;;27.40;75.80;;;28.18;46.30;98134.94;5061109;28;20468;-80
2022/07/20 09:48:13;;;;;;;8.80;5.20;;;27.60;74.70;;;28.28;46.28;98134.72;5061081;28;20587;-80
2022/07/20 09:50:47;;;;;;;13.60;7.03;;;27.60;74.70;;;28.32;46.43;98123.03;5060209;28;20444;-80
2022/07/20 09:53:18;;;;;;;18.50;5.70;;;27.60;74.80;;;28.34;46.22;98131.63;5057699;28;20451;-80
2022/07/20 09:55:50;;;;;;;11.00;5.80;;;27.70;74.70;;;28.40;46.06;98133.13;5058643;28;20496;-80
2022/07/20 09:58:29;;;;;;;7.10;4.93;;;27.70;74.30;;;28.44;45.98;98126.03;5055949;28;20442;-81
2022/07/20 10:01:01;;;;;;;10.83;5.47;;;27.70;74.40;;;28.49;45.96;98135.91;5059939;28;20532;-80
2022/07/20 10:03:35;;;;;;;10.03;5.97;;;27.80;74.50;;;28.61;45.51;98140.75;5060745;28;20978;-80
2022/07/20 10:06:07;;;;;;;10.90;5.37;;;27.90;74.40;;;28.68;45.96;98146.56;5062459;28;20947;-80
2022/07/20 10:08:37;;;;;;;9.53;5.40;;;27.90;74.60;;;28.75;45.49;98152.34;5060913;28;20544;-80
2022/07/20 10:11:07;;;;;;;10.93;5.67;;;28.10;74.10;;;28.84;44.96;98145.16;5060677;28;20950;-80
2022/07/20 10:13:42;;;;;;;10.90;6.13;;;28.20;73.50;;;28.91;45.03;98140.16;5062699;28;20540;-80
2022/07/20 10:16:24;;;;;;;14.80;5.70;;;28.20;73.50;;;28.96;44.30;98143.53;5059822;28;20531;-80
2022/07/20 10:18:56;;;;;;;8.60;5.20;;;28.20;72.70;;;29.02;44.30;98146.88;5061029;28;20457;-80
2022/07/20 10:21:43;;;;;;;9.50;5.83;;;28.30;72.80;;;29.07;44.28;98149.47;5060376;28;20468;-80
2022/07/20 10:24:30;;;;;;;11.30;5.87;;;28.30;72.00;;;29.19;42.87;98147.03;5060148;28;20923;-80
2022/07/20 10:27:28;;;;;;;7.60;5.10;;;28.60;71.40;;;29.22;43.48;98138.34;5061127;28;20456;-80
2022/07/20 10:29:58;;;;;;;12.13;5.10;;;28.60;72.20;;;29.28;43.46;98139.84;5061382;28;20447;-80
2022/07/20 10:32:30;;;;;;;10.80;5.83;;;28.60;72.20;;;29.33;43.65;98147.81;5060268;28;20870;-80
2022/07/20 10:35:02;;;;;;;9.57;5.70;;;28.60;72.70;;;29.40;43.55;98139.28;5059454;28;20511;-81
2022/07/20 10:37:39;;;;;;;7.53;5.20;;;28.60;72.00;;;29.46;43.93;98141.56;5061667;28;20452;-80
2022/07/20 10:40:12;;;;;;;18.07;6.00;;;28.80;72.70;;;29.56;43.01;98137.03;5059682;28;20514;-80
2022/07/20 10:42:46;;;;;;;11.50;5.63;;;28.90;71.60;;;29.64;42.88;98131.69;5060729;28;21018;-80